createdAt,value
2018-10-16T00:00:58.897Z,16.35
2018-10-16T00:03:28.328Z,16.72
2018-10-16T00:05:57.676Z,16.61
2018-10-16T00:08:26.025Z,16.52
2018-10-16T00:10:54.405Z,16.48
2018-10-16T00:13:22.770Z,16.47
2018-10-16T00:15:51.117Z,16.44
2018-10-16T00:18:19.509Z,16.40
2018-10-16T00:20:47.848Z,16.42
2018-10-16T00:23:16.197Z,16.43
2018-10-16T00:25:44.613Z,16.45
2018-10-16T00:28:12.972Z,16.41
2018-10-16T00:30:41.311Z,16.45
2018-10-16T00:33:10.716Z,16.44
2018-10-16T00:35:39.048Z,16.43
2018-10-16T00:38:07.423Z,16.44
2018-10-16T00:40:35.792Z,16.43
2018-10-16T00:43:04.150Z,16.40
2018-10-16T00:45:32.488Z,16.33
2018-10-16T00:48:01.869Z,16.33
2018-10-16T00:50:30.217Z,16.32
2018-10-16T00:52:58.564Z,16.31
2018-10-16T00:55:26.888Z,16.34
2018-10-16T00:57:55.237Z,16.37
2018-10-16T01:00:23.580Z,16.44
2018-10-16T01:02:51.923Z,16.48
2018-10-16T01:05:21.343Z,16.55
2018-10-16T01:07:49.684Z,16.53
2018-10-16T01:10:18.048Z,16.56
2018-10-16T01:12:46.416Z,16.56
2018-10-16T01:15:14.764Z,16.55
2018-10-16T01:17:43.105Z,16.51
2018-10-16T01:20:13.156Z,16.46
2018-10-16T01:22:42.177Z,16.41
2018-10-16T01:25:11.624Z,16.41
2018-10-16T01:27:40.511Z,16.36
2018-10-16T01:30:08.998Z,16.36
2018-10-16T01:32:37.982Z,16.42
2018-10-16T01:35:07.296Z,16.42
2018-10-16T01:37:35.648Z,16.45
2018-10-16T01:40:05.364Z,16.48
2018-10-16T01:42:33.712Z,16.55
2018-10-16T01:45:02.072Z,16.53
2018-10-16T01:47:30.473Z,16.53
2018-10-16T01:49:58.816Z,16.57
2018-10-16T01:52:27.160Z,16.51
2018-10-16T01:54:55.517Z,16.46
2018-10-16T01:57:23.876Z,16.55
2018-10-16T01:59:52.292Z,16.51
2018-10-16T02:02:20.640Z,16.39
2018-10-16T02:04:48.989Z,16.41
2018-10-16T02:07:17.337Z,16.35
2018-10-16T02:09:45.688Z,16.42
2018-10-16T02:12:14.045Z,16.39
2018-10-16T02:14:42.452Z,16.35
2018-10-16T02:17:10.753Z,16.33
2018-10-16T02:19:39.105Z,16.33
2018-10-16T02:22:07.452Z,16.38
2018-10-16T02:24:36.822Z,16.45
2018-10-16T02:27:05.225Z,16.36
2018-10-16T02:29:33.576Z,16.33
2018-10-16T02:32:01.925Z,16.44
2018-10-16T02:34:30.285Z,16.44
2018-10-16T02:36:58.632Z,16.38
2018-10-16T02:39:26.968Z,16.39
2018-10-16T02:41:55.313Z,16.34
2018-10-16T02:44:23.655Z,16.27
2018-10-16T02:46:51.992Z,16.32
2018-10-16T02:49:20.340Z,16.31
2018-10-16T02:51:48.671Z,16.28
2018-10-16T02:54:17.052Z,16.22
2018-10-16T02:56:45.384Z,16.14
2018-10-16T02:59:14.837Z,16.17
2018-10-16T03:01:43.172Z,16.14
2018-10-16T03:04:11.524Z,16.15
2018-10-16T03:06:39.861Z,16.14
2018-10-16T03:09:09.048Z,16.08
2018-10-16T03:11:37.387Z,16.06
2018-10-16T03:14:07.796Z,16.02
2018-10-16T03:16:36.145Z,15.96
2018-10-16T03:19:04.484Z,16.03
2018-10-16T03:21:32.844Z,16.04
2018-10-16T03:24:01.186Z,15.96
2018-10-16T03:26:29.529Z,15.96
2018-10-16T03:28:57.873Z,15.99
2018-10-16T03:31:26.404Z,16.03
2018-10-16T03:33:54.765Z,15.96
2018-10-16T03:36:23.098Z,15.90
2018-10-16T03:38:51.428Z,15.96
2018-10-16T03:41:19.747Z,15.88
2018-10-16T03:43:53.911Z,15.90
2018-10-16T03:46:22.236Z,16.03
2018-10-16T03:48:50.600Z,16.05
2018-10-16T03:51:18.955Z,16.03
2018-10-16T03:53:47.937Z,16.03
2018-10-16T03:56:16.313Z,16.02
2018-10-16T03:58:44.640Z,15.93
2018-10-16T04:01:12.972Z,15.88
2018-10-16T04:03:41.292Z,15.90
2018-10-16T04:06:09.640Z,15.95
2018-10-16T04:08:37.996Z,15.94
2018-10-16T04:11:06.499Z,15.96
2018-10-16T04:13:35.927Z,15.96
2018-10-16T04:16:04.284Z,15.99
2018-10-16T04:18:32.608Z,16.04
2018-10-16T04:21:00.985Z,16.07
2018-10-16T04:23:29.296Z,16.09
2018-10-16T04:25:57.743Z,16.00
2018-10-16T04:28:26.284Z,16.09
2018-10-16T04:30:54.621Z,16.09
2018-10-16T04:33:22.997Z,16.13
2018-10-16T04:35:51.337Z,16.13
2018-10-16T04:38:19.688Z,16.12
2018-10-16T04:40:49.125Z,16.07
2018-10-16T04:43:17.589Z,16.06
2018-10-16T04:45:45.944Z,16.09
2018-10-16T04:48:14.360Z,16.05
2018-10-16T04:50:42.826Z,15.98
2018-10-16T04:53:11.182Z,15.84
2018-10-16T04:55:39.504Z,15.91
2018-10-16T04:58:07.976Z,15.95
2018-10-16T05:00:36.359Z,15.92
2018-10-16T05:03:05.050Z,15.88
2018-10-16T05:05:33.441Z,15.86
2018-10-16T05:08:01.809Z,15.78
2018-10-16T05:10:30.278Z,15.79
2018-10-16T05:12:58.598Z,15.83
2018-10-16T05:15:28.148Z,15.73
2018-10-16T05:17:58.629Z,15.66
2018-10-16T05:20:27.161Z,15.59
2018-10-16T05:22:56.424Z,15.49
2018-10-16T05:25:25.744Z,15.47
2018-10-16T05:27:55.940Z,15.45
2018-10-16T05:30:24.326Z,15.29
2018-10-16T05:32:52.756Z,15.30
2018-10-16T05:35:21.121Z,15.28
2018-10-16T05:37:49.473Z,15.14
2018-10-16T05:40:17.846Z,15.13
2018-10-16T05:42:46.185Z,15.15
2018-10-16T05:45:14.757Z,15.20
2018-10-16T05:47:44.348Z,15.11
2018-10-16T05:50:12.764Z,15.15
2018-10-16T05:52:41.111Z,15.31
2018-10-16T05:55:10.008Z,15.22
2018-10-16T05:57:38.352Z,15.02
2018-10-16T06:00:18.788Z,14.96
2018-10-16T06:02:47.792Z,14.93
2018-10-16T06:05:16.919Z,14.99
2018-10-16T06:07:45.296Z,15.08
2018-10-16T06:10:14.104Z,15.08
2018-10-16T06:12:43.197Z,15.14
2018-10-16T06:15:12.876Z,15.13
2018-10-16T06:17:45.436Z,15.19
2018-10-16T06:20:14.031Z,15.24
2018-10-16T06:22:43.133Z,15.27
2018-10-16T06:25:12.564Z,15.42
2018-10-16T06:27:42.178Z,15.41
2018-10-16T06:30:10.839Z,15.42
2018-10-16T06:32:39.389Z,15.36
2018-10-16T06:35:08.553Z,15.42
2018-10-16T06:37:36.932Z,15.44
2018-10-16T06:40:05.913Z,15.47
2018-10-16T06:42:34.340Z,15.56
2018-10-16T06:45:03.867Z,15.61
2018-10-16T06:47:32.288Z,15.48
2018-10-16T06:50:00.647Z,15.69
2018-10-16T06:52:29.021Z,15.81
2018-10-16T06:54:57.499Z,15.77
2018-10-16T06:57:25.818Z,15.72
2018-10-16T06:59:54.181Z,15.93
2018-10-16T07:02:22.561Z,15.82
2018-10-16T07:04:50.913Z,16.13
2018-10-16T07:07:19.412Z,16.12
2018-10-16T07:09:47.628Z,16.17
2018-10-16T07:12:15.993Z,16.18
2018-10-16T07:14:44.373Z,16.17
2018-10-16T07:17:12.721Z,16.23
2018-10-16T07:19:41.120Z,16.23
2018-10-16T07:22:11.045Z,16.23
2018-10-16T07:24:39.397Z,16.25
2018-10-16T07:27:07.917Z,16.37
2018-10-16T07:29:36.593Z,16.53
2018-10-16T07:32:05.425Z,16.62
2018-10-16T07:34:34.377Z,16.61
2018-10-16T07:37:03.797Z,16.64
2018-10-16T07:39:32.228Z,16.81
2018-10-16T07:42:01.670Z,17.05
2018-10-16T07:44:30.122Z,17.37
2018-10-16T07:46:58.641Z,17.43
2018-10-16T07:49:26.985Z,17.56
2018-10-16T07:51:57.368Z,17.61
2018-10-16T07:54:25.721Z,17.54
2018-10-16T07:56:54.056Z,17.51
2018-10-16T07:59:22.429Z,17.68
2018-10-16T08:01:51.907Z,17.88
2018-10-16T08:04:20.320Z,18.13
2018-10-16T08:06:48.695Z,18.30
2018-10-16T08:09:18.152Z,18.60
2018-10-16T08:11:47.616Z,18.61
2018-10-16T08:14:17.253Z,18.79
2018-10-16T08:16:46.936Z,18.99
2018-10-16T08:19:15.644Z,19.12
2018-10-16T08:21:44.815Z,19.51
2018-10-16T08:24:14.252Z,19.42
2018-10-16T08:26:42.700Z,19.62
2018-10-16T08:29:10.996Z,19.43
2018-10-16T08:31:39.624Z,19.73
2018-10-16T08:34:08.084Z,19.95
2018-10-16T08:36:36.489Z,20.26
2018-10-16T08:39:13.900Z,20.45
2018-10-16T08:44:13.117Z,20.73
2018-10-16T08:46:52.780Z,21.01
2018-10-16T08:49:32.337Z,21.01
2018-10-16T08:52:00.704Z,21.35
2018-10-16T08:54:29.065Z,21.42
2018-10-16T08:56:57.426Z,21.39
2018-10-16T08:59:25.809Z,21.43
2018-10-16T09:01:54.236Z,21.77
2018-10-16T09:04:22.613Z,22.01
2018-10-16T09:06:51.030Z,22.27
2018-10-16T09:09:19.576Z,22.47
2018-10-16T09:11:50.090Z,22.43
2018-10-16T09:14:18.905Z,22.16
2018-10-16T09:16:47.576Z,22.10
2018-10-16T09:19:15.972Z,21.97
2018-10-16T09:21:44.440Z,22.35
2018-10-16T09:24:12.813Z,22.16
2018-10-16T09:26:41.217Z,21.94
2018-10-16T09:29:09.743Z,22.21
2018-10-16T09:31:41.869Z,21.99
2018-10-16T09:34:10.536Z,22.13
2018-10-16T09:36:38.907Z,21.44
2018-10-16T09:39:10.410Z,21.76
2018-10-16T09:41:38.759Z,22.02
2018-10-16T09:44:07.146Z,22.17
2018-10-16T09:46:35.514Z,22.69
2018-10-16T09:49:03.910Z,22.51
2018-10-16T09:51:32.299Z,22.94
2018-10-16T09:54:02.041Z,22.75
2018-10-16T09:56:31.649Z,22.17
2018-10-16T09:59:00.085Z,22.11
2018-10-16T10:01:33.697Z,22.31
2018-10-16T10:04:02.177Z,22.37
2018-10-16T10:06:31.699Z,22.59
2018-10-16T10:09:00.073Z,22.64
2018-10-16T10:11:28.486Z,22.92
2018-10-16T10:13:56.861Z,23.32
2018-10-16T10:16:25.233Z,23.40
2018-10-16T10:18:53.701Z,22.60
2018-10-16T10:21:22.075Z,22.32
2018-10-16T10:23:50.476Z,22.54
2018-10-16T10:26:18.897Z,22.71
2018-10-16T10:28:47.246Z,22.33
2018-10-16T10:31:15.604Z,22.48
2018-10-16T10:33:44.045Z,22.21
2018-10-16T10:36:12.622Z,22.22
2018-10-16T10:38:41.114Z,22.07
2018-10-16T10:41:09.666Z,22.19
2018-10-16T10:43:38.022Z,21.93
2018-10-16T10:46:06.837Z,22.20
2018-10-16T10:48:35.196Z,22.43
2018-10-16T10:51:03.701Z,22.03
2018-10-16T10:53:31.918Z,22.41
2018-10-16T10:56:00.284Z,22.33
2018-10-16T10:58:28.637Z,22.12
2018-10-16T11:00:57.008Z,22.52
2018-10-16T11:03:25.488Z,22.55
2018-10-16T11:05:53.748Z,22.25
2018-10-16T11:08:22.108Z,22.20
2018-10-16T11:10:51.508Z,22.52
2018-10-16T11:13:19.864Z,22.44
2018-10-16T11:15:48.369Z,22.66
2018-10-16T11:18:17.724Z,22.81
2018-10-16T11:20:46.093Z,22.70
2018-10-16T11:23:14.454Z,22.57
2018-10-16T11:25:42.813Z,22.53
2018-10-16T11:28:11.180Z,22.51
2018-10-16T11:30:39.557Z,22.56
2018-10-16T11:33:07.976Z,22.46
2018-10-16T11:35:36.290Z,22.58
2018-10-16T11:38:04.761Z,22.88
2018-10-16T11:40:33.141Z,22.50
2018-10-16T11:43:01.484Z,22.87
2018-10-16T11:45:29.856Z,22.73
2018-10-16T11:47:58.217Z,22.26
2018-10-16T11:50:26.613Z,22.52
2018-10-16T11:52:54.978Z,21.93
2018-10-16T11:55:23.353Z,21.86
2018-10-16T11:57:51.694Z,22.13
2018-10-16T12:00:20.102Z,22.22
2018-10-16T12:02:48.876Z,21.98
2018-10-16T12:05:17.236Z,21.86
2018-10-16T12:07:45.593Z,21.66
2018-10-16T12:10:15.988Z,21.69
2018-10-16T12:12:44.333Z,21.44
2018-10-16T12:15:12.680Z,21.63
2018-10-16T12:17:49.120Z,21.65
2018-10-16T12:20:20.552Z,21.25
2018-10-16T12:22:48.910Z,21.70
2018-10-16T12:25:17.413Z,21.73
2018-10-16T12:27:45.728Z,21.50
2018-10-16T12:30:16.121Z,21.53
2018-10-16T12:32:44.588Z,21.73
2018-10-16T12:35:12.929Z,21.67
2018-10-16T12:37:41.270Z,21.64
2018-10-16T12:40:10.936Z,21.74
2018-10-16T12:42:39.447Z,21.76
2018-10-16T12:45:08.453Z,21.69
2018-10-16T12:47:36.811Z,21.81
2018-10-16T12:50:05.533Z,21.93
2018-10-16T12:52:33.874Z,21.93
2018-10-16T12:55:02.277Z,22.00
2018-10-16T12:57:30.681Z,22.05
2018-10-16T12:59:59.076Z,22.19
2018-10-16T13:02:27.444Z,21.99
2018-10-16T13:04:57.812Z,21.85
2018-10-16T13:07:35.284Z,21.76
2018-10-16T13:10:04.549Z,21.53
2018-10-16T13:12:32.888Z,21.72
2018-10-16T13:15:02.347Z,21.83
2018-10-16T13:17:31.797Z,21.56
2018-10-16T13:20:00.214Z,21.83
2018-10-16T13:22:28.580Z,21.67
2018-10-16T13:24:56.966Z,21.75
2018-10-16T13:27:25.369Z,21.86
2018-10-16T13:29:53.799Z,21.66
2018-10-16T13:32:22.166Z,21.67
2018-10-16T13:34:50.678Z,21.49
2018-10-16T13:37:19.090Z,21.49
2018-10-16T13:39:47.453Z,21.66
2018-10-16T13:42:15.889Z,21.54
2018-10-16T13:44:45.329Z,21.37
2018-10-16T13:47:13.701Z,21.17
2018-10-16T13:49:42.063Z,21.52
2018-10-16T13:52:10.478Z,21.52
2018-10-16T13:54:38.849Z,21.34
2018-10-16T13:57:07.224Z,21.55
2018-10-16T13:59:35.661Z,21.76
2018-10-16T14:02:04.248Z,21.78
2018-10-16T14:04:32.553Z,21.86
2018-10-16T14:07:00.925Z,21.62
2018-10-16T14:09:29.285Z,21.33
2018-10-16T14:11:58.673Z,21.09
2018-10-16T14:14:27.033Z,21.03
2018-10-16T14:16:55.391Z,20.68
2018-10-16T14:19:23.746Z,20.53
2018-10-16T14:21:52.181Z,20.68
2018-10-16T14:24:20.531Z,20.48
2018-10-16T14:26:48.952Z,20.47
2018-10-16T14:29:18.381Z,20.36
2018-10-16T14:31:46.736Z,20.26
2018-10-16T14:34:15.108Z,20.16
2018-10-16T14:36:43.722Z,20.25
2018-10-16T14:39:12.826Z,20.09
2018-10-16T14:41:42.277Z,20.23
2018-10-16T14:44:11.729Z,20.17
2018-10-16T14:46:40.037Z,20.31
2018-10-16T14:49:09.417Z,20.10
2018-10-16T14:51:41.593Z,19.96
2018-10-16T14:54:09.969Z,19.81
2018-10-16T14:56:38.337Z,19.82
2018-10-16T14:59:06.711Z,19.59
2018-10-16T15:01:35.141Z,19.64
2018-10-16T15:04:03.498Z,19.64
2018-10-16T15:06:31.848Z,19.47
2018-10-16T15:09:01.217Z,19.62
2018-10-16T15:11:29.689Z,19.60
2018-10-16T15:13:58.043Z,19.50
2018-10-16T15:16:27.564Z,19.48
2018-10-16T15:18:55.913Z,19.23
2018-10-16T15:21:24.301Z,19.19
2018-10-16T15:23:52.747Z,19.28
2018-10-16T15:26:22.088Z,19.21
2018-10-16T15:28:50.444Z,19.06
2018-10-16T15:31:18.800Z,19.12
2018-10-16T15:33:47.145Z,19.10
2018-10-16T15:36:15.515Z,18.94
2018-10-16T15:38:43.876Z,18.95
2018-10-16T15:41:12.249Z,18.56
2018-10-16T15:43:40.608Z,18.39
2018-10-16T15:46:09.073Z,18.40
2018-10-16T15:48:37.372Z,18.29
2018-10-16T15:51:05.745Z,18.28
2018-10-16T15:53:34.130Z,18.21
2018-10-16T15:56:02.529Z,18.02
2018-10-16T15:58:30.984Z,18.02
2018-10-16T16:00:59.409Z,18.08
2018-10-16T16:03:27.816Z,17.94
2018-10-16T16:05:56.207Z,18.11
2018-10-16T16:08:24.820Z,18.25
2018-10-16T16:10:53.150Z,18.18
2018-10-16T16:13:21.502Z,18.15
2018-10-16T16:15:51.878Z,18.05
2018-10-16T16:18:20.365Z,18.05
2018-10-16T16:20:48.623Z,18.04
2018-10-16T16:23:17.022Z,17.96
2018-10-16T16:25:45.402Z,18.01
2018-10-16T16:28:13.808Z,17.91
2018-10-16T16:30:44.145Z,17.93
2018-10-16T16:33:12.495Z,17.80
2018-10-16T16:35:40.870Z,17.79
2018-10-16T16:38:10.371Z,17.94
2018-10-16T16:40:38.685Z,17.80
2018-10-16T16:43:07.060Z,17.77
2018-10-16T16:45:35.430Z,17.87
2018-10-16T16:48:05.760Z,17.88
2018-10-16T16:50:34.137Z,17.96
2018-10-16T16:53:04.606Z,17.96
2018-10-16T16:55:32.949Z,17.99
2018-10-16T16:58:01.321Z,17.91
2018-10-16T17:00:29.694Z,17.88
2018-10-16T17:02:58.053Z,17.83
2018-10-16T17:05:26.453Z,17.62
2018-10-16T17:07:54.842Z,17.64
2018-10-16T17:10:23.169Z,17.48
2018-10-16T17:12:55.553Z,17.47
2018-10-16T17:15:23.892Z,17.50
2018-10-16T17:17:52.258Z,17.50
2018-10-16T17:20:20.629Z,17.46
2018-10-16T17:22:48.985Z,17.55
2018-10-16T17:25:19.478Z,17.58
2018-10-16T17:27:48.749Z,17.61
2018-10-16T17:30:17.692Z,17.62
2018-10-16T17:32:46.519Z,17.43
2018-10-16T17:35:15.309Z,17.45
2018-10-16T17:37:43.777Z,17.24
2018-10-16T17:40:14.526Z,17.32
2018-10-16T17:42:42.952Z,17.40
2018-10-16T17:45:16.272Z,17.43
2018-10-16T17:47:46.005Z,17.48
2018-10-16T17:50:16.184Z,17.46
2018-10-16T17:52:44.556Z,17.54
2018-10-16T17:55:13.827Z,17.60
2018-10-16T17:57:42.282Z,17.70
2018-10-16T18:00:15.807Z,17.69
2018-10-16T18:02:44.641Z,17.56
2018-10-16T18:05:13.623Z,17.52
2018-10-16T18:07:42.537Z,17.40
2018-10-16T18:10:10.927Z,17.37
2018-10-16T18:12:41.399Z,17.40
2018-10-16T18:15:11.793Z,17.43
2018-10-16T18:17:40.930Z,17.46
2018-10-16T18:20:10.868Z,17.45
2018-10-16T18:22:39.292Z,17.51
2018-10-16T18:25:09.078Z,17.53
2018-10-16T18:27:37.443Z,17.49
2018-10-16T18:30:08.309Z,17.46
2018-10-16T18:32:36.704Z,17.49
2018-10-16T18:35:05.077Z,17.46
2018-10-16T18:37:33.638Z,17.49
2018-10-16T18:40:02.042Z,17.57
2018-10-16T18:42:30.353Z,17.54
2018-10-16T18:44:58.786Z,17.54
2018-10-16T18:47:27.500Z,17.54
2018-10-16T18:49:55.924Z,17.54
2018-10-16T18:52:24.270Z,17.56
2018-10-16T18:54:52.592Z,17.53
2018-10-16T18:57:21.944Z,17.52
2018-10-16T18:59:50.298Z,17.50
2018-10-16T19:02:18.679Z,17.49
2018-10-16T19:04:47.010Z,17.48
2018-10-16T19:07:15.340Z,17.43
2018-10-16T19:09:43.704Z,17.47
2018-10-16T19:12:12.156Z,17.44
2018-10-16T19:14:40.496Z,17.43
2018-10-16T19:17:08.856Z,17.44
2018-10-16T19:19:37.240Z,17.38
2018-10-16T19:22:06.621Z,17.39
2018-10-16T19:24:34.960Z,17.38
2018-10-16T19:27:03.439Z,17.35
2018-10-16T19:29:31.765Z,17.36
2018-10-16T19:32:00.129Z,17.30
2018-10-16T19:34:28.496Z,17.30
2018-10-16T19:36:56.869Z,17.27
2018-10-16T19:39:25.229Z,17.25
2018-10-16T19:41:53.646Z,17.27
2018-10-16T19:44:22.001Z,17.27
2018-10-16T19:46:50.362Z,17.30
2018-10-16T19:49:18.831Z,17.32
2018-10-16T19:51:47.272Z,17.28
2018-10-16T19:54:15.637Z,17.30
2018-10-16T19:56:45.051Z,17.33
2018-10-16T19:59:14.405Z,17.29
2018-10-16T20:01:42.821Z,17.30
2018-10-16T20:04:11.212Z,17.30
2018-10-16T20:06:39.568Z,17.21
2018-10-16T20:09:09.648Z,17.21
2018-10-16T20:11:38.001Z,17.21
2018-10-16T20:14:06.484Z,17.26
2018-10-16T20:16:34.750Z,17.18
2018-10-16T20:19:03.137Z,17.24
2018-10-16T20:21:31.502Z,17.22
2018-10-16T20:23:59.863Z,17.18
2018-10-16T20:26:28.269Z,17.20
2018-10-16T20:28:57.788Z,17.09
2018-10-16T20:31:26.149Z,17.09
2018-10-16T20:33:54.538Z,17.14
2018-10-16T20:36:22.920Z,17.20
2018-10-16T20:38:51.304Z,17.15
2018-10-16T20:41:19.791Z,17.14
2018-10-16T20:43:48.136Z,17.18
2018-10-16T20:46:16.536Z,17.15
2018-10-16T20:48:44.925Z,17.13
2018-10-16T20:51:13.264Z,17.14
2018-10-16T20:53:42.913Z,17.07
2018-10-16T20:56:11.497Z,17.10
2018-10-16T20:58:40.889Z,17.06
2018-10-16T21:01:10.407Z,17.09
2018-10-16T21:03:38.836Z,17.11
2018-10-16T21:06:07.575Z,17.10
2018-10-16T21:08:35.653Z,17.13
2018-10-16T21:11:04.298Z,17.09
2018-10-16T21:13:33.659Z,17.10
2018-10-16T21:16:02.032Z,17.03
2018-10-16T21:18:30.444Z,17.13
2018-10-16T21:20:58.868Z,17.01
2018-10-16T21:23:27.245Z,16.93
2018-10-16T21:25:55.658Z,16.92
2018-10-16T21:28:24.030Z,16.84
2018-10-16T21:30:52.393Z,16.88
2018-10-16T21:33:20.863Z,16.79
2018-10-16T21:35:54.752Z,16.83
2018-10-16T21:38:24.205Z,16.69
2018-10-16T21:40:52.628Z,16.65
2018-10-16T21:43:20.961Z,16.67
2018-10-16T21:45:51.449Z,16.62
2018-10-16T21:48:19.830Z,16.52
2018-10-16T21:50:48.266Z,16.53
2018-10-16T21:53:16.677Z,16.50
2018-10-16T21:55:45.157Z,16.45
2018-10-16T21:58:13.773Z,16.45
2018-10-16T22:00:47.537Z,16.47
2018-10-16T22:03:15.916Z,16.45
2018-10-16T22:05:44.312Z,16.48
2018-10-16T22:08:12.840Z,16.47
2018-10-16T22:10:41.166Z,16.46
2018-10-16T22:13:10.100Z,16.41
2018-10-16T22:15:38.493Z,16.45
2018-10-16T22:18:06.929Z,16.55
2018-10-16T22:20:35.316Z,16.45
2018-10-16T22:23:05.104Z,16.53
2018-10-16T22:25:33.461Z,16.53
2018-10-16T22:28:01.884Z,16.45
2018-10-16T22:30:32.432Z,16.46
2018-10-16T22:33:00.796Z,16.42
2018-10-16T22:35:29.144Z,16.43
2018-10-16T22:37:57.624Z,16.46
2018-10-16T22:40:25.970Z,16.45
2018-10-16T22:42:54.385Z,16.52
2018-10-16T22:45:23.205Z,16.88
2018-10-16T22:47:51.554Z,16.71
2018-10-16T22:50:19.935Z,16.63
2018-10-16T22:52:49.688Z,16.57
2018-10-16T22:55:18.124Z,16.55
2018-10-16T22:57:46.496Z,16.55
2018-10-16T23:00:17.853Z,16.61
2018-10-16T23:02:58.996Z,16.57
2018-10-16T23:05:28.381Z,16.47
2018-10-16T23:07:56.778Z,16.44
2018-10-16T23:10:25.144Z,16.35
2018-10-16T23:12:58.988Z,16.34
2018-10-16T23:15:27.441Z,16.23
2018-10-16T23:17:55.795Z,16.21
2018-10-16T23:20:24.278Z,16.16
2018-10-16T23:22:52.682Z,16.13
2018-10-16T23:25:21.035Z,16.11
2018-10-16T23:27:49.365Z,16.02
2018-10-16T23:30:17.771Z,16.04
2018-10-16T23:32:46.436Z,16.02
2018-10-16T23:35:14.841Z,16.01
2018-10-16T23:37:43.149Z,15.87
2018-10-16T23:40:11.512Z,15.88
2018-10-16T23:42:39.968Z,15.89
2018-10-16T23:45:08.401Z,15.88
2018-10-16T23:47:36.760Z,15.74
2018-10-16T23:50:05.317Z,15.65
2018-10-16T23:52:33.696Z,15.71
2018-10-16T23:55:02.127Z,15.68
2018-10-16T23:57:30.650Z,15.66
2018-10-16T23:59:59.091Z,15.67
